sensor_id;sensor_type;location;lat;lon;timestamp;P1;durP1;ratioP1;P2;durP2;ratioP2
13255;SDS011;37913;48.370;10.930;2023-05-07T00:01:42;100.63;;;43.00;;
13255;SDS011;37913;48.370;10.930;2023-05-07T00:04:09;92.00;;;41.30;;
13255;SDS011;37913;48.370;10.930;2023-05-07T00:06:36;96.22;;;41.95;;
13255;SDS011;37913;48.370;10.930;2023-05-07T00:09:03;84.40;;;40.13;;
13255;SDS011;37913;48.370;10.930;2023-05-07T00:11:32;91.57;;;42.55;;
13255;SDS011;37913;48.370;10.930;2023-05-07T00:13:59;97.00;;;43.92;;
13255;SDS011;37913;48.370;10.930;2023-05-07T00:16:25;93.32;;;42.83;;
13255;SDS011;37913;48.370;10.930;2023-05-07T00:18:52;98.60;;;43.83;;
13255;SDS011;37913;48.370;10.930;2023-05-07T00:21:19;101.32;;;44.90;;
13255;SDS011;37913;48.370;10.930;2023-05-07T00:23:47;102.55;;;44.28;;
13255;SDS011;37913;48.370;10.930;2023-05-07T00:26:14;97.32;;;44.50;;
13255;SDS011;37913;48.370;10.930;2023-05-07T00:28:42;102.18;;;44.42;;
13255;SDS011;37913;48.370;10.930;2023-05-07T00:31:09;95.45;;;42.45;;
13255;SDS011;37913;48.370;10.930;2023-05-07T00:33:36;106.00;;;44.95;;
13255;SDS011;37913;48.370;10.930;2023-05-07T00:36:04;96.57;;;43.25;;
13255;SDS011;37913;48.370;10.930;2023-05-07T00:38:31;94.32;;;42.28;;
13255;SDS011;37913;48.370;10.930;2023-05-07T00:40:58;97.43;;;43.28;;
13255;SDS011;37913;48.370;10.930;2023-05-07T00:43:24;93.85;;;43.03;;
13255;SDS011;37913;48.370;10.930;2023-05-07T00:45:53;89.65;;;42.33;;
13255;SDS011;37913;48.370;10.930;2023-05-07T00:48:21;95.40;;;43.13;;
13255;SDS011;37913;48.370;10.930;2023-05-07T00:50:49;102.63;;;44.53;;
13255;SDS011;37913;48.370;10.930;2023-05-07T00:53:16;90.45;;;42.50;;
13255;SDS011;37913;48.370;10.930;2023-05-07T00:55:43;100.30;;;44.35;;
13255;SDS011;37913;48.370;10.930;2023-05-07T00:58:10;94.88;;;43.33;;
13255;SDS011;37913;48.370;10.930;2023-05-07T01:00:37;95.85;;;42.83;;
13255;SDS011;37913;48.370;10.930;2023-05-07T01:03:06;98.40;;;43.55;;
13255;SDS011;37913;48.370;10.930;2023-05-07T01:05:33;105.65;;;44.72;;
13255;SDS011;37913;48.370;10.930;2023-05-07T01:08:00;100.30;;;43.95;;
13255;SDS011;37913;48.370;10.930;2023-05-07T01:10:28;100.72;;;42.83;;
13255;SDS011;37913;48.370;10.930;2023-05-07T01:12:57;101.30;;;43.58;;
13255;SDS011;37913;48.370;10.930;2023-05-07T01:15:26;99.85;;;43.83;;
13255;SDS011;37913;48.370;10.930;2023-05-07T01:17:53;95.10;;;42.88;;
13255;SDS011;37913;48.370;10.930;2023-05-07T01:20:21;96.50;;;43.17;;
13255;SDS011;37913;48.370;10.930;2023-05-07T01:22:59;105.30;;;45.13;;
13255;SDS011;37913;48.370;10.930;2023-05-07T01:25:27;95.80;;;44.13;;
13255;SDS011;37913;48.370;10.930;2023-05-07T01:27:55;109.38;;;46.45;;
13255;SDS011;37913;48.370;10.930;2023-05-07T01:30:22;91.40;;;42.13;;
13255;SDS011;37913;48.370;10.930;2023-05-07T01:32:50;96.07;;;43.10;;
13255;SDS011;37913;48.370;10.930;2023-05-07T01:35:20;93.07;;;42.50;;
13255;SDS011;37913;48.370;10.930;2023-05-07T01:37:50;100.88;;;43.13;;
13255;SDS011;37913;48.370;10.930;2023-05-07T01:40:19;96.75;;;42.90;;
13255;SDS011;37913;48.370;10.930;2023-05-07T01:42:46;93.70;;;41.85;;
13255;SDS011;37913;48.370;10.930;2023-05-07T01:45:14;93.18;;;41.92;;
13255;SDS011;37913;48.370;10.930;2023-05-07T01:47:41;97.45;;;43.00;;
13255;SDS011;37913;48.370;10.930;2023-05-07T01:50:09;92.03;;;42.08;;
13255;SDS011;37913;48.370;10.930;2023-05-07T01:52:36;94.63;;;42.40;;
13255;SDS011;37913;48.370;10.930;2023-05-07T01:55:04;91.10;;;41.72;;
13255;SDS011;37913;48.370;10.930;2023-05-07T01:57:34;77.60;;;39.78;;
13255;SDS011;37913;48.370;10.930;2023-05-07T02:00:01;108.93;;;45.15;;
13255;SDS011;37913;48.370;10.930;2023-05-07T02:02:31;93.07;;;41.15;;
13255;SDS011;37913;48.370;10.930;2023-05-07T02:04:58;92.28;;;40.65;;
13255;SDS011;37913;48.370;10.930;2023-05-07T02:07:25;89.85;;;40.95;;
13255;SDS011;37913;48.370;10.930;2023-05-07T02:09:52;95.65;;;41.70;;
13255;SDS011;37913;48.370;10.930;2023-05-07T02:12:20;88.20;;;40.55;;
13255;SDS011;37913;48.370;10.930;2023-05-07T02:14:48;88.15;;;39.92;;
13255;SDS011;37913;48.370;10.930;2023-05-07T02:17:15;88.32;;;40.28;;
13255;SDS011;37913;48.370;10.930;2023-05-07T02:19:42;79.65;;;38.85;;
13255;SDS011;37913;48.370;10.930;2023-05-07T02:22:09;85.15;;;39.92;;
13255;SDS011;37913;48.370;10.930;2023-05-07T02:24:36;90.75;;;40.50;;
13255;SDS011;37913;48.370;10.930;2023-05-07T02:27:03;90.60;;;40.78;;
13255;SDS011;37913;48.370;10.930;2023-05-07T02:29:30;96.07;;;41.63;;
13255;SDS011;37913;48.370;10.930;2023-05-07T02:31:58;89.68;;;40.67;;
13255;SDS011;37913;48.370;10.930;2023-05-07T02:34:25;97.07;;;42.55;;
13255;SDS011;37913;48.370;10.930;2023-05-07T02:36:52;104.57;;;43.83;;
13255;SDS011;37913;48.370;10.930;2023-05-07T02:39:19;95.53;;;41.35;;
13255;SDS011;37913;48.370;10.930;2023-05-07T02:41:46;97.47;;;41.55;;
13255;SDS011;37913;48.370;10.930;2023-05-07T02:44:13;88.05;;;40.50;;
13255;SDS011;37913;48.370;10.930;2023-05-07T02:46:40;91.38;;;40.90;;
13255;SDS011;37913;48.370;10.930;2023-05-07T02:49:08;93.70;;;41.75;;
13255;SDS011;37913;48.370;10.930;2023-05-07T02:51:35;89.28;;;40.45;;
13255;SDS011;37913;48.370;10.930;2023-05-07T02:54:02;93.95;;;41.90;;
13255;SDS011;37913;48.370;10.930;2023-05-07T02:56:29;94.28;;;41.72;;
13255;SDS011;37913;48.370;10.930;2023-05-07T02:58:56;92.78;;;41.15;;
13255;SDS011;37913;48.370;10.930;2023-05-07T03:01:23;98.78;;;42.67;;
13255;SDS011;37913;48.370;10.930;2023-05-07T03:03:50;96.07;;;41.70;;
13255;SDS011;37913;48.370;10.930;2023-05-07T03:06:18;95.05;;;40.63;;
13255;SDS011;37913;48.370;10.930;2023-05-07T03:08:45;97.43;;;42.50;;
13255;SDS011;37913;48.370;10.930;2023-05-07T03:11:12;89.50;;;40.88;;
13255;SDS011;37913;48.370;10.930;2023-05-07T03:13:39;100.38;;;42.72;;
13255;SDS011;37913;48.370;10.930;2023-05-07T03:16:06;87.05;;;40.03;;
13255;SDS011;37913;48.370;10.930;2023-05-07T03:18:33;91.93;;;40.47;;
13255;SDS011;37913;48.370;10.930;2023-05-07T03:21:00;90.78;;;40.70;;
13255;SDS011;37913;48.370;10.930;2023-05-07T03:23:28;87.47;;;40.35;;
13255;SDS011;37913;48.370;10.930;2023-05-07T03:25:55;89.95;;;40.22;;
13255;SDS011;37913;48.370;10.930;2023-05-07T03:28:22;94.28;;;40.88;;
13255;SDS011;37913;48.370;10.930;2023-05-07T03:30:49;84.60;;;38.83;;
13255;SDS011;37913;48.370;10.930;2023-05-07T03:33:16;91.57;;;40.00;;
13255;SDS011;37913;48.370;10.930;2023-05-07T03:35:43;99.07;;;42.30;;
13255;SDS011;37913;48.370;10.930;2023-05-07T03:38:10;88.55;;;38.88;;
13255;SDS011;37913;48.370;10.930;2023-05-07T03:40:39;98.13;;;40.42;;
13255;SDS011;37913;48.370;10.930;2023-05-07T03:43:06;92.40;;;39.63;;
13255;SDS011;37913;48.370;10.930;2023-05-07T03:45:33;92.82;;;39.90;;
13255;SDS011;37913;48.370;10.930;2023-05-07T03:48:00;91.22;;;40.03;;
13255;SDS011;37913;48.370;10.930;2023-05-07T03:50:26;94.97;;;40.38;;
13255;SDS011;37913;48.370;10.930;2023-05-07T03:52:53;88.85;;;38.85;;
13255;SDS011;37913;48.370;10.930;2023-05-07T03:55:20;89.85;;;39.75;;
13255;SDS011;37913;48.370;10.930;2023-05-07T03:57:49;93.88;;;40.53;;
13255;SDS011;37913;48.370;10.930;2023-05-07T04:00:16;93.97;;;39.80;;
13255;SDS011;37913;48.370;10.930;2023-05-07T04:02:45;87.82;;;38.47;;
13255;SDS011;37913;48.370;10.930;2023-05-07T04:05:12;93.50;;;39.90;;
13255;SDS011;37913;48.370;10.930;2023-05-07T04:07:40;94.45;;;39.83;;
13255;SDS011;37913;48.370;10.930;2023-05-07T04:10:07;88.00;;;38.85;;
13255;SDS011;37913;48.370;10.930;2023-05-07T04:12:35;88.35;;;39.00;;
13255;SDS011;37913;48.370;10.930;2023-05-07T04:15:03;87.53;;;39.08;;
13255;SDS011;37913;48.370;10.930;2023-05-07T04:17:30;79.97;;;37.67;;
13255;SDS011;37913;48.370;10.930;2023-05-07T04:19:57;94.53;;;40.72;;
13255;SDS011;37913;48.370;10.930;2023-05-07T04:22:24;90.45;;;39.80;;
13255;SDS011;37913;48.370;10.930;2023-05-07T04:24:51;100.38;;;41.47;;
13255;SDS011;37913;48.370;10.930;2023-05-07T04:27:18;89.00;;;39.83;;
13255;SDS011;37913;48.370;10.930;2023-05-07T04:29:45;90.18;;;39.08;;
13255;SDS011;37913;48.370;10.930;2023-05-07T04:32:13;87.88;;;39.58;;
13255;SDS011;37913;48.370;10.930;2023-05-07T04:34:40;91.78;;;40.42;;
13255;SDS011;37913;48.370;10.930;2023-05-07T04:37:08;86.85;;;40.03;;
13255;SDS011;37913;48.370;10.930;2023-05-07T04:39:35;99.07;;;42.22;;
13255;SDS011;37913;48.370;10.930;2023-05-07T04:42:02;86.68;;;39.85;;
13255;SDS011;37913;48.370;10.930;2023-05-07T04:44:29;93.63;;;41.08;;
13255;SDS011;37913;48.370;10.930;2023-05-07T04:46:57;95.95;;;41.85;;
13255;SDS011;37913;48.370;10.930;2023-05-07T04:49:26;91.50;;;41.10;;
13255;SDS011;37913;48.370;10.930;2023-05-07T04:51:53;102.05;;;43.28;;
13255;SDS011;37913;48.370;10.930;2023-05-07T04:54:20;93.25;;;41.10;;
13255;SDS011;37913;48.370;10.930;2023-05-07T04:56:47;85.70;;;40.30;;
13255;SDS011;37913;48.370;10.930;2023-05-07T04:59:14;92.35;;;41.33;;
13255;SDS011;37913;48.370;10.930;2023-05-07T05:01:41;101.72;;;43.15;;
13255;SDS011;37913;48.370;10.930;2023-05-07T05:04:07;89.97;;;40.15;;
13255;SDS011;37913;48.370;10.930;2023-05-07T05:06:37;97.65;;;42.25;;
13255;SDS011;37913;48.370;10.930;2023-05-07T05:09:04;89.25;;;40.13;;
13255;SDS011;37913;48.370;10.930;2023-05-07T05:11:31;92.63;;;40.70;;
13255;SDS011;37913;48.370;10.930;2023-05-07T05:13:58;97.05;;;42.80;;
13255;SDS011;37913;48.370;10.930;2023-05-07T05:16:27;96.47;;;42.50;;
13255;SDS011;37913;48.370;10.930;2023-05-07T05:18:54;98.93;;;43.15;;
13255;SDS011;37913;48.370;10.930;2023-05-07T05:21:21;87.75;;;41.10;;
13255;SDS011;37913;48.370;10.930;2023-05-07T05:23:49;95.38;;;42.28;;
13255;SDS011;37913;48.370;10.930;2023-05-07T05:26:17;91.82;;;41.75;;
13255;SDS011;37913;48.370;10.930;2023-05-07T05:28:43;97.28;;;43.00;;
13255;SDS011;37913;48.370;10.930;2023-05-07T05:31:11;90.30;;;40.70;;
13255;SDS011;37913;48.370;10.930;2023-05-07T05:33:38;94.75;;;41.53;;
13255;SDS011;37913;48.370;10.930;2023-05-07T05:36:05;93.03;;;41.60;;
13255;SDS011;37913;48.370;10.930;2023-05-07T05:38:35;89.13;;;40.63;;
13255;SDS011;37913;48.370;10.930;2023-05-07T05:41:03;95.50;;;42.15;;
13255;SDS011;37913;48.370;10.930;2023-05-07T05:43:30;86.07;;;40.88;;
13255;SDS011;37913;48.370;10.930;2023-05-07T05:45:57;85.38;;;40.72;;
13255;SDS011;37913;48.370;10.930;2023-05-07T05:48:25;94.68;;;43.22;;
13255;SDS011;37913;48.370;10.930;2023-05-07T05:50:52;92.82;;;42.92;;
13255;SDS011;37913;48.370;10.930;2023-05-07T05:53:19;92.20;;;43.10;;
13255;SDS011;37913;48.370;10.930;2023-05-07T05:55:46;90.05;;;42.92;;
13255;SDS011;37913;48.370;10.930;2023-05-07T05:58:14;87.53;;;42.60;;
13255;SDS011;37913;48.370;10.930;2023-05-07T06:00:41;105.72;;;45.50;;
13255;SDS011;37913;48.370;10.930;2023-05-07T06:03:08;87.07;;;42.63;;
13255;SDS011;37913;48.370;10.930;2023-05-07T06:05:35;91.93;;;43.25;;
13255;SDS011;37913;48.370;10.930;2023-05-07T06:08:02;83.53;;;42.47;;
13255;SDS011;37913;48.370;10.930;2023-05-07T06:10:29;92.68;;;44.28;;
13255;SDS011;37913;48.370;10.930;2023-05-07T06:12:56;87.93;;;43.60;;
13255;SDS011;37913;48.370;10.930;2023-05-07T06:15:25;92.97;;;45.00;;
13255;SDS011;37913;48.370;10.930;2023-05-07T06:17:51;93.57;;;45.40;;
13255;SDS011;37913;48.370;10.930;2023-05-07T06:20:20;93.78;;;44.55;;
13255;SDS011;37913;48.370;10.930;2023-05-07T06:22:47;95.15;;;45.55;;
13255;SDS011;37913;48.370;10.930;2023-05-07T06:25:14;94.30;;;45.30;;
13255;SDS011;37913;48.370;10.930;2023-05-07T06:27:41;90.70;;;45.55;;
13255;SDS011;37913;48.370;10.930;2023-05-07T06:30:08;107.13;;;48.72;;
13255;SDS011;37913;48.370;10.930;2023-05-07T06:32:37;91.88;;;46.00;;
13255;SDS011;37913;48.370;10.930;2023-05-07T06:35:04;95.15;;;47.00;;
13255;SDS011;37913;48.370;10.930;2023-05-07T06:37:31;97.85;;;47.72;;
13255;SDS011;37913;48.370;10.930;2023-05-07T06:39:58;95.22;;;47.53;;
13255;SDS011;37913;48.370;10.930;2023-05-07T06:42:25;98.88;;;48.72;;
13255;SDS011;37913;48.370;10.930;2023-05-07T06:44:52;100.72;;;49.55;;
13255;SDS011;37913;48.370;10.930;2023-05-07T06:47:20;105.25;;;50.97;;
13255;SDS011;37913;48.370;10.930;2023-05-07T06:49:48;96.85;;;49.47;;
13255;SDS011;37913;48.370;10.930;2023-05-07T06:52:15;94.32;;;49.60;;
13255;SDS011;37913;48.370;10.930;2023-05-07T06:54:42;105.63;;;52.13;;
13255;SDS011;37913;48.370;10.930;2023-05-07T06:57:09;106.50;;;53.35;;
13255;SDS011;37913;48.370;10.930;2023-05-07T06:59:36;98.32;;;52.97;;
13255;SDS011;37913;48.370;10.930;2023-05-07T07:02:03;92.15;;;52.45;;
13255;SDS011;37913;48.370;10.930;2023-05-07T07:04:30;102.82;;;54.97;;
13255;SDS011;37913;48.370;10.930;2023-05-07T07:06:58;95.05;;;52.78;;
13255;SDS011;37913;48.370;10.930;2023-05-07T07:09:25;98.57;;;55.33;;
13255;SDS011;37913;48.370;10.930;2023-05-07T07:11:52;98.60;;;54.83;;
13255;SDS011;37913;48.370;10.930;2023-05-07T07:14:19;101.47;;;54.78;;
13255;SDS011;37913;48.370;10.930;2023-05-07T07:16:46;93.45;;;54.55;;
13255;SDS011;37913;48.370;10.930;2023-05-07T07:19:13;102.32;;;57.70;;
13255;SDS011;37913;48.370;10.930;2023-05-07T07:21:41;96.32;;;55.55;;
13255;SDS011;37913;48.370;10.930;2023-05-07T07:24:09;96.35;;;56.20;;
13255;SDS011;37913;48.370;10.930;2023-05-07T07:26:36;93.88;;;56.08;;
13255;SDS011;37913;48.370;10.930;2023-05-07T07:29:04;98.30;;;56.97;;
13255;SDS011;37913;48.370;10.930;2023-05-07T07:31:32;89.00;;;55.95;;
13255;SDS011;37913;48.370;10.930;2023-05-07T07:33:59;95.55;;;57.28;;
13255;SDS011;37913;48.370;10.930;2023-05-07T07:36:27;95.10;;;57.45;;
13255;SDS011;37913;48.370;10.930;2023-05-07T07:38:55;85.78;;;56.47;;
13255;SDS011;37913;48.370;10.930;2023-05-07T07:41:23;92.32;;;57.95;;
13255;SDS011;37913;48.370;10.930;2023-05-07T07:43:50;99.75;;;60.75;;
13255;SDS011;37913;48.370;10.930;2023-05-07T07:46:17;97.68;;;62.55;;
13255;SDS011;37913;48.370;10.930;2023-05-07T07:48:44;104.22;;;64.60;;
13255;SDS011;37913;48.370;10.930;2023-05-07T07:51:11;101.20;;;64.57;;
13255;SDS011;37913;48.370;10.930;2023-05-07T07:53:38;102.82;;;67.03;;
13255;SDS011;37913;48.370;10.930;2023-05-07T07:56:06;108.80;;;67.93;;
13255;SDS011;37913;48.370;10.930;2023-05-07T07:58:34;103.93;;;67.50;;
13255;SDS011;37913;48.370;10.930;2023-05-07T08:01:03;106.40;;;66.63;;
13255;SDS011;37913;48.370;10.930;2023-05-07T08:03:30;107.32;;;67.15;;
13255;SDS011;37913;48.370;10.930;2023-05-07T08:05:58;87.55;;;63.70;;
13255;SDS011;37913;48.370;10.930;2023-05-07T08:08:25;96.40;;;65.50;;
13255;SDS011;37913;48.370;10.930;2023-05-07T08:10:51;98.97;;;66.50;;
13255;SDS011;37913;48.370;10.930;2023-05-07T08:13:18;103.78;;;67.03;;
13255;SDS011;37913;48.370;10.930;2023-05-07T08:15:47;98.72;;;68.65;;
13255;SDS011;37913;48.370;10.930;2023-05-07T08:18:14;104.18;;;73.38;;
13255;SDS011;37913;48.370;10.930;2023-05-07T08:20:41;108.50;;;75.07;;
13255;SDS011;37913;48.370;10.930;2023-05-07T08:23:08;107.53;;;79.25;;
13255;SDS011;37913;48.370;10.930;2023-05-07T08:25:36;112.63;;;76.80;;
13255;SDS011;37913;48.370;10.930;2023-05-07T08:28:03;105.88;;;75.28;;
13255;SDS011;37913;48.370;10.930;2023-05-07T08:30:30;103.95;;;75.63;;
13255;SDS011;37913;48.370;10.930;2023-05-07T08:32:58;108.03;;;76.78;;
13255;SDS011;37913;48.370;10.930;2023-05-07T08:35:26;109.82;;;79.40;;
13255;SDS011;37913;48.370;10.930;2023-05-07T08:37:53;105.70;;;79.55;;
13255;SDS011;37913;48.370;10.930;2023-05-07T08:40:20;109.95;;;79.47;;
13255;SDS011;37913;48.370;10.930;2023-05-07T08:42:48;106.00;;;80.30;;
13255;SDS011;37913;48.370;10.930;2023-05-07T08:45:17;103.78;;;78.00;;
13255;SDS011;37913;48.370;10.930;2023-05-07T08:47:46;106.00;;;80.40;;
13255;SDS011;37913;48.370;10.930;2023-05-07T08:50:19;101.30;;;78.63;;
13255;SDS011;37913;48.370;10.930;2023-05-07T08:52:47;103.88;;;79.30;;
13255;SDS011;37913;48.370;10.930;2023-05-07T08:55:14;106.10;;;82.88;;
13255;SDS011;37913;48.370;10.930;2023-05-07T08:57:41;108.35;;;81.13;;
13255;SDS011;37913;48.370;10.930;2023-05-07T09:00:08;104.38;;;78.85;;
13255;SDS011;37913;48.370;10.930;2023-05-07T09:02:36;101.03;;;78.00;;
13255;SDS011;37913;48.370;10.930;2023-05-07T09:05:03;130.98;;;87.53;;
13255;SDS011;37913;48.370;10.930;2023-05-07T09:07:32;119.15;;;86.35;;
13255;SDS011;37913;48.370;10.930;2023-05-07T09:10:00;104.68;;;86.82;;
13255;SDS011;37913;48.370;10.930;2023-05-07T09:12:29;100.82;;;82.80;;
13255;SDS011;37913;48.370;10.930;2023-05-07T09:14:56;107.95;;;82.68;;
13255;SDS011;37913;48.370;10.930;2023-05-07T09:17:23;104.25;;;80.88;;
13255;SDS011;37913;48.370;10.930;2023-05-07T09:19:50;268.02;;;131.20;;
13255;SDS011;37913;48.370;10.930;2023-05-07T09:22:18;101.07;;;78.47;;
13255;SDS011;37913;48.370;10.930;2023-05-07T09:24:48;104.70;;;79.22;;
13255;SDS011;37913;48.370;10.930;2023-05-07T09:27:16;112.25;;;80.38;;
13255;SDS011;37913;48.370;10.930;2023-05-07T09:29:44;104.53;;;79.72;;
13255;SDS011;37913;48.370;10.930;2023-05-07T09:32:11;99.20;;;80.40;;
13255;SDS011;37913;48.370;10.930;2023-05-07T09:34:38;98.47;;;81.90;;
13255;SDS011;37913;48.370;10.930;2023-05-07T09:37:05;98.75;;;82.85;;
13255;SDS011;37913;48.370;10.930;2023-05-07T09:39:38;101.28;;;84.38;;
13255;SDS011;37913;48.370;10.930;2023-05-07T09:42:07;101.50;;;78.43;;
13255;SDS011;37913;48.370;10.930;2023-05-07T09:44:35;106.97;;;75.82;;
13255;SDS011;37913;48.370;10.930;2023-05-07T09:47:04;101.28;;;75.72;;
13255;SDS011;37913;48.370;10.930;2023-05-07T09:49:33;103.70;;;79.15;;
13255;SDS011;37913;48.370;10.930;2023-05-07T09:52:03;111.25;;;86.13;;
13255;SDS011;37913;48.370;10.930;2023-05-07T09:54:33;92.55;;;81.45;;
13255;SDS011;37913;48.370;10.930;2023-05-07T09:57:03;93.30;;;82.60;;
13255;SDS011;37913;48.370;10.930;2023-05-07T09:59:33;98.22;;;87.53;;
13255;SDS011;37913;48.370;10.930;2023-05-07T10:02:03;99.65;;;86.25;;
13255;SDS011;37913;48.370;10.930;2023-05-07T10:04:31;102.80;;;89.75;;
13255;SDS011;37913;48.370;10.930;2023-05-07T10:06:58;104.40;;;86.55;;
13255;SDS011;37913;48.370;10.930;2023-05-07T10:09:26;104.60;;;88.10;;
13255;SDS011;37913;48.370;10.930;2023-05-07T10:11:54;101.30;;;88.05;;
13255;SDS011;37913;48.370;10.930;2023-05-07T10:14:22;118.35;;;88.68;;
13255;SDS011;37913;48.370;10.930;2023-05-07T10:16:51;94.88;;;80.93;;
13255;SDS011;37913;48.370;10.930;2023-05-07T10:19:20;108.32;;;83.30;;
13255;SDS011;37913;48.370;10.930;2023-05-07T10:21:51;105.28;;;84.13;;
13255;SDS011;37913;48.370;10.930;2023-05-07T10:24:24;102.05;;;83.70;;
13255;SDS011;37913;48.370;10.930;2023-05-07T10:26:52;112.10;;;87.90;;
13255;SDS011;37913;48.370;10.930;2023-05-07T10:29:25;108.85;;;89.40;;
13255;SDS011;37913;48.370;10.930;2023-05-07T10:32:04;100.68;;;89.80;;
13255;SDS011;37913;48.370;10.930;2023-05-07T10:34:53;131.57;;;98.13;;
13255;SDS011;37913;48.370;10.930;2023-05-07T10:37:21;101.60;;;90.88;;
13255;SDS011;37913;48.370;10.930;2023-05-07T10:39:49;107.93;;;95.25;;
13255;SDS011;37913;48.370;10.930;2023-05-07T10:42:16;105.82;;;93.50;;
13255;SDS011;37913;48.370;10.930;2023-05-07T10:44:43;108.13;;;92.05;;
13255;SDS011;37913;48.370;10.930;2023-05-07T10:47:12;109.25;;;91.25;;
13255;SDS011;37913;48.370;10.930;2023-05-07T10:52:44;103.40;;;77.70;;
13255;SDS011;37913;48.370;10.930;2023-05-07T10:55:31;96.10;;;74.30;;
13255;SDS011;37913;48.370;10.930;2023-05-07T10:58:02;114.55;;;76.45;;
13255;SDS011;37913;48.370;10.930;2023-05-07T11:00:50;103.75;;;72.75;;
13255;SDS011;37913;48.370;10.930;2023-05-07T11:03:18;88.97;;;67.47;;
13255;SDS011;37913;48.370;10.930;2023-05-07T11:05:47;93.50;;;68.45;;
13255;SDS011;37913;48.370;10.930;2023-05-07T11:11:19;103.85;;;68.80;;
13255;SDS011;37913;48.370;10.930;2023-05-07T11:13:47;100.55;;;69.47;;
13255;SDS011;37913;48.370;10.930;2023-05-07T11:16:16;105.22;;;69.53;;
13255;SDS011;37913;48.370;10.930;2023-05-07T11:18:48;93.32;;;71.55;;
13255;SDS011;37913;48.370;10.930;2023-05-07T11:21:31;95.60;;;74.50;;
13255;SDS011;37913;48.370;10.930;2023-05-07T11:24:00;102.72;;;77.68;;
13255;SDS011;37913;48.370;10.930;2023-05-07T11:26:27;101.80;;;80.47;;
13255;SDS011;37913;48.370;10.930;2023-05-07T11:28:56;100.10;;;82.28;;
13255;SDS011;37913;48.370;10.930;2023-05-07T11:31:25;109.20;;;83.88;;
13255;SDS011;37913;48.370;10.930;2023-05-07T11:33:56;101.15;;;78.75;;
13255;SDS011;37913;48.370;10.930;2023-05-07T11:36:23;107.15;;;82.43;;
13255;SDS011;37913;48.370;10.930;2023-05-07T11:38:52;107.15;;;88.28;;
13255;SDS011;37913;48.370;10.930;2023-05-07T11:41:19;101.63;;;77.78;;
13255;SDS011;37913;48.370;10.930;2023-05-07T11:43:56;99.88;;;77.00;;
13255;SDS011;37913;48.370;10.930;2023-05-07T11:46:24;106.82;;;83.28;;
13255;SDS011;37913;48.370;10.930;2023-05-07T11:48:52;104.97;;;79.32;;
13255;SDS011;37913;48.370;10.930;2023-05-07T11:51:21;104.13;;;83.93;;
13255;SDS011;37913;48.370;10.930;2023-05-07T11:53:52;105.65;;;80.93;;
13255;SDS011;37913;48.370;10.930;2023-05-07T11:56:20;105.38;;;79.05;;
13255;SDS011;37913;48.370;10.930;2023-05-07T11:58:47;98.15;;;76.22;;
13255;SDS011;37913;48.370;10.930;2023-05-07T12:01:15;101.63;;;75.38;;
13255;SDS011;37913;48.370;10.930;2023-05-07T12:03:43;100.80;;;74.13;;
13255;SDS011;37913;48.370;10.930;2023-05-07T12:06:12;113.10;;;71.38;;
13255;SDS011;37913;48.370;10.930;2023-05-07T12:08:42;108.97;;;70.82;;
13255;SDS011;37913;48.370;10.930;2023-05-07T12:11:10;95.75;;;69.28;;
13255;SDS011;37913;48.370;10.930;2023-05-07T12:13:41;117.43;;;78.10;;
13255;SDS011;37913;48.370;10.930;2023-05-07T12:16:08;119.22;;;78.30;;
13255;SDS011;37913;48.370;10.930;2023-05-07T12:18:36;102.30;;;73.07;;
13255;SDS011;37913;48.370;10.930;2023-05-07T12:21:04;99.32;;;70.72;;
13255;SDS011;37913;48.370;10.930;2023-05-07T12:23:33;102.47;;;72.07;;
13255;SDS011;37913;48.370;10.930;2023-05-07T12:26:03;106.55;;;75.53;;
13255;SDS011;37913;48.370;10.930;2023-05-07T12:28:30;103.18;;;75.97;;
13255;SDS011;37913;48.370;10.930;2023-05-07T12:31:02;107.82;;;80.32;;
13255;SDS011;37913;48.370;10.930;2023-05-07T12:33:29;93.30;;;73.47;;
13255;SDS011;37913;48.370;10.930;2023-05-07T12:35:57;88.65;;;69.63;;
13255;SDS011;37913;48.370;10.930;2023-05-07T12:38:24;94.38;;;70.95;;
13255;SDS011;37913;48.370;10.930;2023-05-07T12:40:53;104.28;;;69.32;;
13255;SDS011;37913;48.370;10.930;2023-05-07T12:43:24;95.80;;;66.03;;
13255;SDS011;37913;48.370;10.930;2023-05-07T12:45:54;96.20;;;65.35;;
13255;SDS011;37913;48.370;10.930;2023-05-07T12:48:22;104.97;;;65.82;;
13255;SDS011;37913;48.370;10.930;2023-05-07T12:50:52;98.80;;;65.90;;
13255;SDS011;37913;48.370;10.930;2023-05-07T12:53:20;105.60;;;72.57;;
13255;SDS011;37913;48.370;10.930;2023-05-07T12:55:49;98.95;;;66.97;;
13255;SDS011;37913;48.370;10.930;2023-05-07T12:58:18;103.38;;;66.78;;
13255;SDS011;37913;48.370;10.930;2023-05-07T13:00:48;115.25;;;69.45;;
13255;SDS011;37913;48.370;10.930;2023-05-07T13:03:23;123.80;;;72.70;;
13255;SDS011;37913;48.370;10.930;2023-05-07T13:05:51;102.20;;;65.20;;
13255;SDS011;37913;48.370;10.930;2023-05-07T13:08:28;101.80;;;65.38;;
13255;SDS011;37913;48.370;10.930;2023-05-07T13:10:57;103.35;;;63.25;;
13255;SDS011;37913;48.370;10.930;2023-05-07T13:13:28;101.47;;;62.33;;
13255;SDS011;37913;48.370;10.930;2023-05-07T13:15:56;102.30;;;61.05;;
13255;SDS011;37913;48.370;10.930;2023-05-07T13:18:24;100.10;;;59.90;;
13255;SDS011;37913;48.370;10.930;2023-05-07T13:20:52;113.57;;;62.53;;
13255;SDS011;37913;48.370;10.930;2023-05-07T13:23:19;97.68;;;58.40;;
13255;SDS011;37913;48.370;10.930;2023-05-07T13:25:46;113.93;;;61.78;;
13255;SDS011;37913;48.370;10.930;2023-05-07T13:28:13;105.45;;;60.83;;
13255;SDS011;37913;48.370;10.930;2023-05-07T13:30:40;111.70;;;62.30;;
13255;SDS011;37913;48.370;10.930;2023-05-07T13:33:09;104.70;;;59.78;;
13255;SDS011;37913;48.370;10.930;2023-05-07T13:35:36;88.55;;;56.75;;
13255;SDS011;37913;48.370;10.930;2023-05-07T13:38:03;93.13;;;57.67;;
13255;SDS011;37913;48.370;10.930;2023-05-07T13:40:30;91.28;;;58.20;;
13255;SDS011;37913;48.370;10.930;2023-05-07T13:42:57;92.25;;;57.22;;
13255;SDS011;37913;48.370;10.930;2023-05-07T13:45:26;98.32;;;56.88;;
13255;SDS011;37913;48.370;10.930;2023-05-07T13:47:54;88.70;;;55.47;;
13255;SDS011;37913;48.370;10.930;2023-05-07T13:50:23;99.00;;;56.05;;
13255;SDS011;37913;48.370;10.930;2023-05-07T13:52:51;109.75;;;57.42;;
13255;SDS011;37913;48.370;10.930;2023-05-07T13:55:19;95.55;;;54.25;;
13255;SDS011;37913;48.370;10.930;2023-05-07T13:57:46;108.45;;;56.03;;
13255;SDS011;37913;48.370;10.930;2023-05-07T14:00:14;91.93;;;52.30;;
13255;SDS011;37913;48.370;10.930;2023-05-07T14:02:41;97.82;;;53.10;;
13255;SDS011;37913;48.370;10.930;2023-05-07T14:05:08;97.10;;;50.85;;
13255;SDS011;37913;48.370;10.930;2023-05-07T14:07:37;94.20;;;51.45;;
13255;SDS011;37913;48.370;10.930;2023-05-07T14:10:06;89.50;;;50.35;;
13255;SDS011;37913;48.370;10.930;2023-05-07T14:12:34;103.25;;;52.22;;
13255;SDS011;37913;48.370;10.930;2023-05-07T14:15:01;89.72;;;49.97;;